createdAt,value
2023-02-19T00:01:22.172Z,10.88
2023-02-19T00:03:48.581Z,11.25
2023-02-19T00:06:14.953Z,10.92
2023-02-19T00:08:41.301Z,10.80
2023-02-19T00:11:07.785Z,10.68
2023-02-19T00:13:34.257Z,10.65
2023-02-19T00:16:00.682Z,10.82
2023-02-19T00:18:27.125Z,10.87
2023-02-19T00:20:53.493Z,10.86
2023-02-19T00:23:19.826Z,11.26
2023-02-19T00:25:46.213Z,11.00
2023-02-19T00:28:12.609Z,10.82
2023-02-19T00:30:38.958Z,10.77
2023-02-19T00:33:05.345Z,10.96
2023-02-19T00:35:31.694Z,11.53
2023-02-19T00:37:58.088Z,11.50
2023-02-19T00:40:24.438Z,11.63
2023-02-19T00:42:50.820Z,11.62
2023-02-19T00:45:17.220Z,11.23
2023-02-19T00:47:43.571Z,10.82
2023-02-19T00:50:09.950Z,10.78
2023-02-19T00:52:36.306Z,10.97
2023-02-19T00:55:02.684Z,10.56
2023-02-19T00:57:29.042Z,11.06
2023-02-19T00:59:55.423Z,11.21
2023-02-19T01:02:21.788Z,11.46
2023-02-19T01:04:48.152Z,11.59
2023-02-19T01:07:14.554Z,11.62
2023-02-19T01:09:40.946Z,11.69
2023-02-19T01:12:07.351Z,11.79
2023-02-19T01:14:33.746Z,11.99
2023-02-19T01:17:00.106Z,11.76
2023-02-19T01:19:26.455Z,11.73
2023-02-19T01:21:52.832Z,11.51
2023-02-19T01:24:19.175Z,11.06
2023-02-19T01:26:45.511Z,10.82
2023-02-19T01:29:11.860Z,10.65
2023-02-19T01:31:38.318Z,10.74
2023-02-19T01:34:04.782Z,11.04
2023-02-19T01:36:31.156Z,11.31
2023-02-19T01:38:57.507Z,11.01
2023-02-19T01:41:23.900Z,10.90
2023-02-19T01:43:50.277Z,10.72
2023-02-19T01:46:16.692Z,10.58
2023-02-19T01:48:43.101Z,10.57
2023-02-19T01:51:09.840Z,10.77
2023-02-19T01:53:36.341Z,10.51
2023-02-19T01:56:02.727Z,10.47
2023-02-19T01:58:29.128Z,10.57
2023-02-19T02:00:55.581Z,10.52
2023-02-19T02:03:21.964Z,10.56
2023-02-19T02:05:48.307Z,10.82
2023-02-19T02:08:16.381Z,10.88
2023-02-19T02:10:42.862Z,10.73
2023-02-19T02:13:09.261Z,10.78
2023-02-19T02:15:35.617Z,10.69
2023-02-19T02:18:02.032Z,10.76
2023-02-19T02:20:28.399Z,10.46
2023-02-19T02:22:54.791Z,10.36
2023-02-19T02:25:21.143Z,10.28
2023-02-19T02:27:47.516Z,10.14
2023-02-19T02:30:13.927Z,10.43
2023-02-19T02:32:40.303Z,10.44
2023-02-19T02:35:06.646Z,10.77
2023-02-19T02:37:33.025Z,10.67
2023-02-19T02:39:59.407Z,11.13
2023-02-19T02:42:25.763Z,11.17
2023-02-19T02:44:52.143Z,11.32
2023-02-19T02:47:18.503Z,11.45
2023-02-19T02:49:44.843Z,11.63
2023-02-19T02:52:11.219Z,11.33
2023-02-19T02:54:37.581Z,11.37
2023-02-19T02:57:03.959Z,11.54
2023-02-19T02:59:30.369Z,11.42
2023-02-19T03:01:56.739Z,11.41
2023-02-19T03:04:23.142Z,11.25
2023-02-19T03:06:49.493Z,11.29
2023-02-19T03:09:15.843Z,11.02
2023-02-19T03:11:42.192Z,11.16
2023-02-19T03:14:08.549Z,10.99
2023-02-19T03:16:34.986Z,11.44
2023-02-19T03:19:01.389Z,11.04
2023-02-19T03:21:27.779Z,11.38
2023-02-19T03:23:54.150Z,11.17
2023-02-19T03:26:20.552Z,11.47
2023-02-19T03:28:46.949Z,11.58
2023-02-19T03:31:13.581Z,11.75
2023-02-19T03:33:40.059Z,11.40
2023-02-19T03:36:06.444Z,11.35
2023-02-19T03:38:32.902Z,11.39
2023-02-19T03:40:59.291Z,11.21
2023-02-19T03:43:25.649Z,11.15
2023-02-19T03:45:52.025Z,11.19
2023-02-19T03:48:18.452Z,11.32
2023-02-19T03:50:44.849Z,11.60
2023-02-19T03:53:11.251Z,11.40
2023-02-19T03:55:37.632Z,11.04
2023-02-19T03:58:04.014Z,10.89
2023-02-19T04:00:30.415Z,11.39
2023-02-19T04:02:56.756Z,11.34
2023-02-19T04:05:23.142Z,11.55
2023-02-19T04:07:49.558Z,11.61
2023-02-19T04:10:15.943Z,11.31
2023-02-19T04:12:42.341Z,10.91
2023-02-19T04:15:08.703Z,11.57
2023-02-19T04:17:35.085Z,11.00
2023-02-19T04:20:01.480Z,11.26
2023-02-19T04:22:27.908Z,11.46
2023-02-19T04:24:54.259Z,11.67
2023-02-19T04:27:20.671Z,11.73
2023-02-19T04:29:47.068Z,11.68
2023-02-19T04:32:13.457Z,11.62
2023-02-19T04:34:39.809Z,11.78
2023-02-19T04:37:06.185Z,11.62
2023-02-19T04:39:32.533Z,11.61
2023-02-19T04:41:58.932Z,11.65
2023-02-19T04:44:25.288Z,11.72
2023-02-19T04:46:51.665Z,11.75
2023-02-19T04:49:18.085Z,11.71
2023-02-19T04:51:44.500Z,11.76
2023-02-19T04:54:10.858Z,11.81
2023-02-19T04:56:37.237Z,11.53
2023-02-19T04:59:03.620Z,11.83
2023-02-19T05:01:30.031Z,11.42
2023-02-19T05:03:56.438Z,11.59
2023-02-19T05:06:22.787Z,11.78
2023-02-19T05:08:49.173Z,12.02
2023-02-19T05:11:15.535Z,11.75
2023-02-19T05:13:41.943Z,11.81
2023-02-19T05:16:08.401Z,11.73
2023-02-19T05:18:34.826Z,11.40
2023-02-19T05:21:01.196Z,11.28
2023-02-19T05:23:27.575Z,10.94
2023-02-19T05:25:53.926Z,10.71
2023-02-19T05:28:20.263Z,10.34
2023-02-19T05:30:46.701Z,10.33
2023-02-19T05:33:13.216Z,10.28
2023-02-19T05:35:39.560Z,10.46
2023-02-19T05:38:05.907Z,10.72
2023-02-19T05:40:32.271Z,10.47
2023-02-19T05:42:58.607Z,10.45
2023-02-19T05:45:24.985Z,10.40
2023-02-19T05:47:51.324Z,10.90
2023-02-19T05:50:17.703Z,10.50
2023-02-19T05:52:44.049Z,10.35
2023-02-19T05:55:10.442Z,10.52
2023-02-19T05:57:36.936Z,10.53
2023-02-19T06:00:03.305Z,10.16
2023-02-19T06:02:29.703Z,10.29
2023-02-19T06:04:56.105Z,10.07
2023-02-19T06:07:22.449Z,10.14
2023-02-19T06:09:48.796Z,10.57
2023-02-19T06:12:15.154Z,10.88
2023-02-19T06:14:41.512Z,11.00
2023-02-19T06:17:07.863Z,11.02
2023-02-19T06:19:34.204Z,10.94
2023-02-19T06:22:00.543Z,11.05
2023-02-19T06:24:26.940Z,11.47
2023-02-19T06:26:53.286Z,11.56
2023-02-19T06:29:19.663Z,11.70
2023-02-19T06:31:46.115Z,11.51
2023-02-19T06:34:12.587Z,11.56
2023-02-19T06:36:38.964Z,11.57
2023-02-19T06:39:05.358Z,11.70
2023-02-19T06:41:31.779Z,11.65
2023-02-19T06:43:58.146Z,11.84
2023-02-19T06:46:24.574Z,12.04
2023-02-19T06:48:50.986Z,12.14
2023-02-19T06:51:17.339Z,12.10
2023-02-19T06:53:43.712Z,12.06
2023-02-19T06:56:10.051Z,12.10
2023-02-19T06:58:36.389Z,11.81
2023-02-19T07:01:02.765Z,11.65
2023-02-19T07:03:29.144Z,11.49
2023-02-19T07:05:55.524Z,11.52
2023-02-19T07:08:21.905Z,11.46
2023-02-19T07:10:48.255Z,11.72
2023-02-19T07:13:14.600Z,11.97
2023-02-19T07:15:40.990Z,12.14
2023-02-19T07:18:07.366Z,12.49
2023-02-19T07:20:33.713Z,12.49
2023-02-19T07:23:00.105Z,12.73
2023-02-19T07:25:26.506Z,12.65
2023-02-19T07:27:52.856Z,12.72
2023-02-19T07:30:19.206Z,12.77
2023-02-19T07:32:45.593Z,13.01
2023-02-19T07:35:12.008Z,12.96
2023-02-19T07:37:38.410Z,12.78
2023-02-19T07:40:04.794Z,12.86
2023-02-19T07:42:31.192Z,12.63
2023-02-19T07:45:00.240Z,13.08
2023-02-19T07:47:26.920Z,12.52
2023-02-19T07:49:53.276Z,12.84
2023-02-19T07:52:19.622Z,12.63
2023-02-19T07:54:45.984Z,12.97
2023-02-19T07:57:12.394Z,12.86
2023-02-19T07:59:38.776Z,13.14
2023-02-19T08:02:05.135Z,13.49
2023-02-19T08:04:31.517Z,13.47
2023-02-19T08:06:57.906Z,13.57
2023-02-19T08:09:24.319Z,13.68
2023-02-19T08:11:50.655Z,13.59
2023-02-19T08:14:17.031Z,13.72
2023-02-19T08:16:43.617Z,13.76
2023-02-19T08:19:10.000Z,13.80
2023-02-19T08:21:36.378Z,13.93
2023-02-19T08:24:02.760Z,13.86
2023-02-19T08:26:29.113Z,13.78
2023-02-19T08:28:55.460Z,13.87
2023-02-19T08:31:21.923Z,13.69
2023-02-19T08:33:48.336Z,13.81
2023-02-19T08:36:14.719Z,13.50
2023-02-19T08:38:41.071Z,14.06
2023-02-19T08:41:07.508Z,14.22
2023-02-19T08:43:33.886Z,14.23
2023-02-19T08:46:00.286Z,14.20
2023-02-19T08:48:26.647Z,14.14
2023-02-19T08:50:53.017Z,13.94
2023-02-19T08:53:19.359Z,13.87
2023-02-19T08:55:45.770Z,13.97
2023-02-19T08:58:12.154Z,14.06
2023-02-19T09:00:38.498Z,14.00
2023-02-19T09:03:04.830Z,13.86
2023-02-19T09:05:31.219Z,14.01
2023-02-19T09:07:57.569Z,14.07
2023-02-19T09:10:23.954Z,14.01
2023-02-19T09:12:50.368Z,14.07
2023-02-19T09:15:16.743Z,13.53
2023-02-19T09:17:43.138Z,13.79
2023-02-19T09:20:09.509Z,13.29
2023-02-19T09:22:35.885Z,13.86
2023-02-19T09:25:02.269Z,13.48
2023-02-19T09:27:28.618Z,13.49
2023-02-19T09:29:54.966Z,13.48
2023-02-19T09:32:21.513Z,13.32
2023-02-19T09:34:47.901Z,13.72
2023-02-19T09:37:14.239Z,13.47
2023-02-19T09:39:40.617Z,13.45
2023-02-19T09:42:06.968Z,13.65
2023-02-19T09:44:33.358Z,13.92
2023-02-19T09:46:59.698Z,13.82
2023-02-19T09:49:26.158Z,14.31
2023-02-19T09:51:52.548Z,14.34
2023-02-19T09:54:18.894Z,13.92
2023-02-19T09:56:45.265Z,14.45
2023-02-19T09:59:11.867Z,14.32
2023-02-19T10:01:38.292Z,14.48
2023-02-19T10:04:04.659Z,14.64
2023-02-19T10:06:31.048Z,14.58
2023-02-19T10:08:57.444Z,14.47
2023-02-19T10:11:23.852Z,14.41
2023-02-19T10:13:50.207Z,14.57
2023-02-19T10:16:16.603Z,14.95
2023-02-19T10:18:43.057Z,15.00
2023-02-19T10:21:09.785Z,15.05
2023-02-19T10:23:36.251Z,15.02
2023-02-19T10:26:02.595Z,15.19
2023-02-19T10:28:28.983Z,15.14
2023-02-19T10:30:55.372Z,15.28
2023-02-19T10:33:21.760Z,15.48
2023-02-19T10:35:48.144Z,15.39
2023-02-19T10:38:14.537Z,15.33
2023-02-19T10:40:40.890Z,15.43
2023-02-19T10:43:07.259Z,15.38
2023-02-19T10:45:33.673Z,15.36
2023-02-19T10:48:00.027Z,15.20
2023-02-19T10:50:26.404Z,15.15
2023-02-19T10:52:52.785Z,15.09
2023-02-19T10:55:19.134Z,15.43
2023-02-19T10:57:45.488Z,15.57
2023-02-19T11:00:11.870Z,15.40
2023-02-19T11:02:38.217Z,15.36
2023-02-19T11:05:04.582Z,15.56
2023-02-19T11:07:31.219Z,15.57
2023-02-19T11:09:57.626Z,15.71
2023-02-19T11:12:23.986Z,15.61
2023-02-19T11:14:50.328Z,15.55
2023-02-19T11:17:16.701Z,15.73
2023-02-19T11:19:43.111Z,15.42
2023-02-19T11:22:09.466Z,15.09
2023-02-19T11:24:35.803Z,15.05
2023-02-19T11:27:02.204Z,15.32
2023-02-19T11:29:28.628Z,15.33
2023-02-19T11:31:55.161Z,15.65
2023-02-19T11:34:21.557Z,15.99
2023-02-19T11:36:47.887Z,15.48
2023-02-19T11:39:14.274Z,15.76
2023-02-19T11:41:40.652Z,15.61
2023-02-19T11:44:07.011Z,15.91
2023-02-19T11:46:33.411Z,15.74
2023-02-19T11:48:59.791Z,16.16
2023-02-19T11:51:26.178Z,16.35
2023-02-19T11:53:52.518Z,15.95
2023-02-19T11:56:18.893Z,15.78
2023-02-19T11:58:45.285Z,16.04
2023-02-19T12:01:11.993Z,15.70
2023-02-19T12:03:38.488Z,15.47
2023-02-19T12:06:04.831Z,15.71
2023-02-19T12:08:31.181Z,15.83
2023-02-19T12:10:57.570Z,16.20
2023-02-19T12:13:23.919Z,16.17
2023-02-19T12:15:50.283Z,15.91
2023-02-19T12:18:16.662Z,15.70
2023-02-19T12:20:43.041Z,15.94
2023-02-19T12:23:09.437Z,16.39
2023-02-19T12:25:35.834Z,16.39
2023-02-19T12:28:02.205Z,16.19
2023-02-19T12:30:28.699Z,15.74
2023-02-19T12:32:55.143Z,15.78
2023-02-19T12:35:21.500Z,15.66
2023-02-19T12:37:47.880Z,15.99
2023-02-19T12:40:14.269Z,16.25
2023-02-19T12:42:40.663Z,16.62
2023-02-19T12:45:07.004Z,16.67
2023-02-19T12:47:33.343Z,16.08
2023-02-19T12:49:59.674Z,15.91
2023-02-19T12:52:26.066Z,16.32
2023-02-19T12:54:54.796Z,16.18
2023-02-19T12:57:22.031Z,16.16
2023-02-19T12:59:48.476Z,16.50
2023-02-19T13:02:14.908Z,16.53
2023-02-19T13:04:41.329Z,16.52
2023-02-19T13:07:07.715Z,16.85
2023-02-19T13:09:34.104Z,17.00
2023-02-19T13:12:00.471Z,17.11
2023-02-19T13:14:26.868Z,17.07
2023-02-19T13:16:53.261Z,17.23
2023-02-19T13:19:19.671Z,16.98
2023-02-19T13:21:46.073Z,16.87
2023-02-19T13:24:12.413Z,16.70
2023-02-19T13:26:38.766Z,17.12
2023-02-19T13:29:05.160Z,17.24
2023-02-19T13:31:31.682Z,16.88
2023-02-19T13:33:58.123Z,17.18
2023-02-19T13:36:24.467Z,17.28
2023-02-19T13:38:50.810Z,17.28
2023-02-19T13:41:17.151Z,17.42
2023-02-19T13:43:43.489Z,17.24
2023-02-19T13:46:09.912Z,17.44
2023-02-19T13:48:36.314Z,17.53
2023-02-19T13:51:02.742Z,17.62
2023-02-19T13:53:29.090Z,17.36
2023-02-19T13:55:55.470Z,17.75
2023-02-19T13:58:21.849Z,17.35
2023-02-19T14:00:49.405Z,17.53
2023-02-19T14:03:15.851Z,17.46
2023-02-19T14:05:42.192Z,17.16
2023-02-19T14:08:08.530Z,16.84
2023-02-19T14:10:34.871Z,16.92
2023-02-19T14:13:01.277Z,17.15
2023-02-19T14:15:27.689Z,17.44
2023-02-19T14:17:54.130Z,17.38
2023-02-19T14:20:20.512Z,17.57
2023-02-19T14:22:46.913Z,17.70
2023-02-19T14:25:13.266Z,17.68
2023-02-19T14:27:39.595Z,17.71
2023-02-19T14:30:06.081Z,17.93
2023-02-19T14:32:32.563Z,17.91
2023-02-19T14:34:58.946Z,17.91
2023-02-19T14:37:25.292Z,17.96
2023-02-19T14:39:51.635Z,17.74
2023-02-19T14:42:17.972Z,17.33
2023-02-19T14:44:44.357Z,17.66
2023-02-19T14:47:10.707Z,17.17
2023-02-19T14:49:37.094Z,17.60
2023-02-19T14:52:03.440Z,17.61
2023-02-19T14:54:29.813Z,17.51
2023-02-19T14:56:56.190Z,17.23
2023-02-19T14:59:22.529Z,17.27
2023-02-19T15:01:48.964Z,17.19
2023-02-19T15:04:15.387Z,16.70
2023-02-19T15:06:41.793Z,16.51
2023-02-19T15:09:08.150Z,16.38
2023-02-19T15:11:34.482Z,16.65
2023-02-19T15:14:00.810Z,16.85
2023-02-19T15:16:27.184Z,16.70
2023-02-19T15:18:53.530Z,16.90
2023-02-19T15:21:19.910Z,16.80
2023-02-19T15:23:46.291Z,16.57
2023-02-19T15:26:12.684Z,16.54
2023-02-19T15:28:39.037Z,16.54
2023-02-19T15:31:05.441Z,16.66
2023-02-19T15:33:31.811Z,16.98
2023-02-19T15:35:58.182Z,16.92
2023-02-19T15:38:24.574Z,17.32
2023-02-19T15:40:50.919Z,16.79
2023-02-19T15:43:17.308Z,17.01
2023-02-19T15:45:43.646Z,17.59
2023-02-19T15:48:10.045Z,17.73
2023-02-19T15:50:36.392Z,17.69
2023-02-19T15:53:02.720Z,17.20
2023-02-19T15:55:29.113Z,17.61
2023-02-19T15:57:55.520Z,17.57
2023-02-19T16:00:21.975Z,17.14
2023-02-19T16:02:48.401Z,17.07
2023-02-19T16:05:14.817Z,17.49
2023-02-19T16:07:41.197Z,17.39
2023-02-19T16:10:07.584Z,17.66
2023-02-19T16:12:33.940Z,17.52
2023-02-19T16:15:00.318Z,17.54
2023-02-19T16:17:26.719Z,16.90
2023-02-19T16:19:53.072Z,17.04
2023-02-19T16:22:19.414Z,17.27
2023-02-19T16:24:45.805Z,17.10
2023-02-19T16:27:12.157Z,16.87
2023-02-19T16:29:38.553Z,16.72
2023-02-19T16:32:04.995Z,17.07
2023-02-19T16:34:31.436Z,16.85
2023-02-19T16:36:57.826Z,16.62
2023-02-19T16:39:24.168Z,16.62
2023-02-19T16:41:50.556Z,16.41
2023-02-19T16:44:16.942Z,16.49
2023-02-19T16:46:43.285Z,16.31
2023-02-19T16:49:09.661Z,15.97
2023-02-19T16:51:36.250Z,15.61
2023-02-19T16:54:02.653Z,15.12
2023-02-19T16:56:29.007Z,15.17
2023-02-19T16:58:55.394Z,14.77
2023-02-19T17:01:21.812Z,14.70
2023-02-19T17:03:48.260Z,14.57
2023-02-19T17:06:14.663Z,14.76
2023-02-19T17:08:41.008Z,14.85
2023-02-19T17:11:07.384Z,14.56
2023-02-19T17:13:33.746Z,14.60
2023-02-19T17:16:00.108Z,14.10
2023-02-19T17:18:26.464Z,14.14
2023-02-19T17:20:52.810Z,14.08
2023-02-19T17:23:19.138Z,13.98
2023-02-19T17:25:45.476Z,13.88
2023-02-19T17:28:11.845Z,13.99
2023-02-19T17:30:40.057Z,14.13
2023-02-19T17:33:06.815Z,14.22
2023-02-19T17:35:33.194Z,13.93
2023-02-19T17:37:59.533Z,13.93
2023-02-19T17:40:32.827Z,14.02
2023-02-19T17:42:59.736Z,13.77
2023-02-19T17:45:26.130Z,13.96
2023-02-19T17:47:52.526Z,14.05
2023-02-19T17:50:18.909Z,14.13
2023-02-19T17:52:45.262Z,14.04
2023-02-19T17:55:11.658Z,13.85
2023-02-19T17:57:38.045Z,13.96
2023-02-19T18:00:04.433Z,13.60
2023-02-19T18:02:30.788Z,13.75
2023-02-19T18:04:57.161Z,13.81
2023-02-19T18:07:23.570Z,13.28
2023-02-19T18:09:49.913Z,13.35
2023-02-19T18:12:16.291Z,13.18
2023-02-19T18:14:42.631Z,13.20
2023-02-19T18:17:08.971Z,12.93
2023-02-19T18:19:35.321Z,12.74
2023-02-19T18:22:01.655Z,12.28
2023-02-19T18:24:28.050Z,12.30
2023-02-19T18:26:54.478Z,12.23
2023-02-19T18:29:20.888Z,11.72
2023-02-19T18:31:47.345Z,11.80
2023-02-19T18:34:13.797Z,12.01
2023-02-19T18:36:40.138Z,11.68
2023-02-19T18:39:06.511Z,11.88
2023-02-19T18:41:32.855Z,11.74
2023-02-19T18:43:59.239Z,11.35
2023-02-19T18:46:25.709Z,11.57
2023-02-19T18:48:52.111Z,11.56
2023-02-19T18:51:18.475Z,11.37
2023-02-19T18:53:44.862Z,11.79
2023-02-19T18:56:11.262Z,11.68
2023-02-19T18:58:37.659Z,11.81
2023-02-19T19:01:04.122Z,11.73
2023-02-19T19:03:30.516Z,11.66
2023-02-19T19:05:56.842Z,11.77
2023-02-19T19:08:23.186Z,12.06
2023-02-19T19:10:49.556Z,12.19
2023-02-19T19:13:15.965Z,12.51
2023-02-19T19:15:42.361Z,12.89
2023-02-19T19:18:08.745Z,12.76
2023-02-19T19:20:35.130Z,12.95
2023-02-19T19:23:01.530Z,12.86
2023-02-19T19:25:27.974Z,13.18
2023-02-19T19:27:54.356Z,13.27
2023-02-19T19:30:20.822Z,12.95
2023-02-19T19:32:47.896Z,13.11
2023-02-19T19:35:14.262Z,13.07
2023-02-19T19:37:40.633Z,12.92
2023-02-19T19:40:07.019Z,12.84
2023-02-19T19:42:33.420Z,12.87
2023-02-19T19:44:59.840Z,12.67
2023-02-19T19:47:26.209Z,12.73
2023-02-19T19:49:52.576Z,12.81
2023-02-19T19:52:19.004Z,12.98
2023-02-19T19:54:45.466Z,12.69
2023-02-19T19:57:11.860Z,12.92
2023-02-19T19:59:38.217Z,13.07
2023-02-19T20:02:04.597Z,13.03
2023-02-19T20:04:30.983Z,12.91
2023-02-19T20:06:57.369Z,12.93
2023-02-19T20:09:23.789Z,12.61
2023-02-19T20:11:50.225Z,12.61
2023-02-19T20:14:16.589Z,12.66
2023-02-19T20:16:44.706Z,13.03
2023-02-19T20:19:11.392Z,13.27
2023-02-19T20:21:37.759Z,12.77
2023-02-19T20:24:04.146Z,13.23
2023-02-19T20:26:30.507Z,12.97
2023-02-19T20:28:56.889Z,12.94
2023-02-19T20:31:23.479Z,12.90
2023-02-19T20:33:49.863Z,12.54
2023-02-19T20:36:16.251Z,12.82
2023-02-19T20:38:42.643Z,12.88
2023-02-19T20:41:09.066Z,13.13
2023-02-19T20:43:35.500Z,12.98
2023-02-19T20:46:01.894Z,13.04
2023-02-19T20:48:28.247Z,12.80
2023-02-19T20:50:54.626Z,12.48
2023-02-19T20:53:21.024Z,12.10
2023-02-19T20:55:47.388Z,11.95
2023-02-19T20:58:13.775Z,12.13
2023-02-19T21:00:40.173Z,11.64
2023-02-19T21:03:06.620Z,11.75
2023-02-19T21:05:33.008Z,12.02
2023-02-19T21:07:59.393Z,12.04
2023-02-19T21:10:25.752Z,12.10
2023-02-19T21:12:52.088Z,11.96
2023-02-19T21:15:18.422Z,11.76
2023-02-19T21:17:44.757Z,11.79
2023-02-19T21:20:11.136Z,11.79
2023-02-19T21:22:37.528Z,11.85
2023-02-19T21:25:03.879Z,12.60
2023-02-19T21:27:30.235Z,12.17
2023-02-19T21:29:56.606Z,12.56
2023-02-19T21:32:23.060Z,12.64
2023-02-19T21:34:49.430Z,12.87
2023-02-19T21:37:15.797Z,12.05
2023-02-19T21:39:42.187Z,11.97
2023-02-19T21:42:08.521Z,11.71
2023-02-19T21:44:34.927Z,11.69
2023-02-19T21:47:01.288Z,11.19
2023-02-19T21:49:27.632Z,11.44
2023-02-19T21:51:53.979Z,11.59
2023-02-19T21:54:20.411Z,11.64
2023-02-19T21:56:46.825Z,11.56
2023-02-19T21:59:13.170Z,11.88
2023-02-19T22:01:39.573Z,11.71
2023-02-19T22:04:05.991Z,11.93
2023-02-19T22:06:32.356Z,11.43
2023-02-19T22:08:58.744Z,11.74
2023-02-19T22:11:25.136Z,11.26
2023-02-19T22:13:51.549Z,11.28
2023-02-19T22:16:17.970Z,11.60
2023-02-19T22:18:44.395Z,11.67
2023-02-19T22:21:10.724Z,10.87
2023-02-19T22:23:37.059Z,11.14
2023-02-19T22:26:03.454Z,11.10
2023-02-19T22:28:29.819Z,11.38
2023-02-19T22:30:56.483Z,11.40
2023-02-19T22:33:22.868Z,10.89
2023-02-19T22:35:49.204Z,10.69
2023-02-19T22:38:15.564Z,10.98
2023-02-19T22:40:41.935Z,10.89
2023-02-19T22:43:08.328Z,11.05
2023-02-19T22:45:34.687Z,11.32
2023-02-19T22:48:01.070Z,11.74
2023-02-19T22:50:27.410Z,11.89
2023-02-19T22:52:53.783Z,12.13
2023-02-19T22:55:20.170Z,12.03
2023-02-19T22:57:46.522Z,11.87
2023-02-19T23:00:12.854Z,12.23
2023-02-19T23:02:39.193Z,12.00
2023-02-19T23:05:05.582Z,11.76
2023-02-19T23:07:31.970Z,11.39
2023-02-19T23:09:58.363Z,11.47
2023-02-19T23:12:24.706Z,11.87
2023-02-19T23:14:51.039Z,11.94
2023-02-19T23:17:17.380Z,11.97
2023-02-19T23:19:43.741Z,11.94
2023-02-19T23:22:10.366Z,12.17
2023-02-19T23:24:36.703Z,12.15
2023-02-19T23:27:03.080Z,12.11
2023-02-19T23:29:29.426Z,12.02
2023-02-19T23:31:55.862Z,12.08
2023-02-19T23:34:22.291Z,11.50
2023-02-19T23:36:48.630Z,11.10
2023-02-19T23:39:14.964Z,11.48
2023-02-19T23:41:41.294Z,11.12
2023-02-19T23:44:07.661Z,10.88
2023-02-19T23:46:34.006Z,11.24
2023-02-19T23:49:00.348Z,11.38
2023-02-19T23:51:26.734Z,11.99
2023-02-19T23:53:53.135Z,11.94
2023-02-19T23:56:19.537Z,11.88
2023-02-19T23:58:45.907Z,12.11
